Terminal Aerodrome Forecast
Issued by NWS

Home | Current Version | Previous Version | Text Only | Print | Product List | Glossary On
Versions: 1 2 3 4 5 6 7 8 9 10 11 12 13 14 15
000
FTUS45 KTFX 200545
TAFBZN
TAF
KBZN 200545Z 2006/2112 VRB05KT P6SM FEW120
     FM200900 VRB03KT 3SM BR FEW010 SCT040
     FM201800 VRB05KT P6SM SCT035 BKN060
     FM210900 VRB03KT 1SM BR VCFG BKN010=

USA.gov is the U.S. government's official web portal to all federal, state and local government web resources and services.